Time;durP1;ratioP1;P1;durP2;ratioP2;P2;SDS_P1;SDS_P2;PMS_P1;PMS_P2;Temp;Humidity;BMP_temperature;BMP_pressure;BME280_temperature;BME280_humidity;BME280_pressure;Samples;Min_cycle;Max_cycle;Signal;HPM_P1;HPM_P2
2023/06/25 00:02:48;;;;;;;5.68;4.70;;;23.70;64.50;;;;;;10324448;28;20068;-61
2023/06/25 00:07:48;;;;;;;5.25;4.63;;;23.80;64.50;;;;;;10322624;28;20021;-60
2023/06/25 00:12:49;;;;;;;5.35;4.85;;;23.70;64.40;;;;;;10322337;28;20472;-61
2023/06/25 00:17:50;;;;;;;5.25;4.45;;;23.70;64.40;;;;;;10322331;28;20045;-61
2023/06/25 00:22:51;;;;;;;4.97;4.30;;;23.70;64.40;;;;;;10323900;28;20022;-59
2023/06/25 00:27:52;;;;;;;4.47;3.80;;;23.70;64.40;;;;;;10323588;28;20539;-61
2023/06/25 00:32:56;;;;;;;7.03;4.50;;;23.70;64.40;;;;;;10305552;28;20493;-61
2023/06/25 00:38:01;;;;;;;5.13;4.43;;;23.70;64.40;;;;;;10321632;28;20593;-59
2023/06/25 00:43:04;;;;;;;6.22;4.93;;;23.70;64.40;;;;;;10302594;28;20113;-61
2023/06/25 00:48:04;;;;;;;6.00;4.50;;;23.70;64.40;;;;;;10304952;28;20034;-58
2023/06/25 00:53:09;;;;;;;5.97;4.93;;;23.70;64.40;;;;;;10304892;28;20697;-60
2023/06/25 00:58:10;;;;;;;5.13;4.25;;;23.70;64.40;;;;;;10320754;28;20101;-61
2023/06/25 01:03:41;;;;;;;6.25;5.05;;;23.70;64.40;;;;;;10320739;28;20030;-61
2023/06/25 01:08:49;;;;;;;5.30;4.22;;;23.70;64.40;;;;;;10320323;28;20445;-61
2023/06/25 01:13:50;;;;;;;5.13;4.57;;;23.70;64.40;;;;;;10319997;28;20038;-61
2023/06/25 01:18:51;;;;;;;5.80;4.60;;;23.70;64.40;;;;;;10321364;28;20065;-61
2023/06/25 01:23:52;;;;;;;4.60;3.72;;;23.70;64.40;;;;;;10319824;28;20045;-61
2023/06/25 01:28:55;;;;;;;5.28;4.78;;;23.60;64.30;;;;;;10321031;28;20040;-61
2023/06/25 01:33:57;;;;;;;4.93;4.35;;;23.70;64.40;;;;;;10320773;28;20030;-61
2023/06/25 01:38:57;;;;;;;6.05;4.82;;;23.60;64.30;;;;;;10310618;28;20078;-61
2023/06/25 01:43:58;;;;;;;4.72;4.10;;;23.60;64.30;;;;;;10295407;28;20284;-59
2023/06/25 01:48:59;;;;;;;6.55;5.22;;;23.60;64.30;;;;;;10319465;28;20027;-61
2023/06/25 01:54:00;;;;;;;5.78;4.97;;;23.60;64.30;;;;;;10320265;28;20360;-61
2023/06/25 01:59:00;;;;;;;5.60;4.78;;;23.60;64.30;;;;;;10315622;28;20023;-61
2023/06/25 02:04:01;;;;;;;5.65;4.28;;;23.60;64.30;;;;;;10320234;28;20113;-61
2023/06/25 02:09:02;;;;;;;5.22;4.18;;;23.60;64.30;;;;;;10320180;28;20018;-61
2023/06/25 02:14:05;;;;;;;5.22;4.28;;;23.60;64.30;;;;;;10320275;28;20031;-61
2023/06/25 02:19:05;;;;;;;5.43;4.47;;;23.60;64.30;;;;;;10318817;28;20030;-61
2023/06/25 02:24:06;;;;;;;5.65;4.95;;;23.60;64.30;;;;;;10325503;28;20567;-61
2023/06/25 02:29:07;;;;;;;6.07;4.38;;;23.60;64.30;;;;;;10326816;28;20019;-61
2023/06/25 02:34:08;;;;;;;4.82;3.97;;;23.60;64.40;;;;;;10326057;28;20030;-61
2023/06/25 02:39:08;;;;;;;4.82;4.32;;;23.60;64.30;;;;;;10326281;28;20043;-59
2023/06/25 02:44:09;;;;;;;4.90;4.00;;;23.60;64.40;;;;;;10303429;28;20034;-61
2023/06/25 02:49:10;;;;;;;5.22;4.63;;;23.60;64.30;;;;;;10326861;28;20097;-59
2023/06/25 02:54:10;;;;;;;5.82;4.00;;;23.60;64.30;;;;;;10322022;28;20106;-61
2023/06/25 02:59:11;;;;;;;5.18;4.40;;;23.60;64.40;;;;;;10321909;28;20165;-61
2023/06/25 03:04:12;;;;;;;5.85;5.30;;;23.50;64.30;;;;;;10323223;28;20115;-60
2023/06/25 03:09:12;;;;;;;5.18;4.68;;;23.50;64.30;;;;;;10325440;28;20630;-61
2023/06/25 03:14:13;;;;;;;4.90;4.18;;;23.50;64.30;;;;;;10325468;28;20026;-61
2023/06/25 03:19:14;;;;;;;5.90;4.80;;;23.50;64.30;;;;;;10308612;28;20029;-61
2023/06/25 03:24:14;;;;;;;5.45;4.43;;;23.50;64.30;;;;;;10326844;28;20289;-62
2023/06/25 03:29:15;;;;;;;6.55;4.70;;;23.50;64.90;;;;;;10301251;28;20030;-60
2023/06/25 03:34:16;;;;;;;5.90;5.20;;;23.50;64.30;;;;;;10317678;28;20029;-60
2023/06/25 03:39:17;;;;;;;5.82;4.88;;;23.50;64.30;;;;;;10325036;28;20050;-60
2023/06/25 03:44:18;;;;;;;5.50;4.45;;;23.50;64.30;;;;;;10319879;28;20022;-60
2023/06/25 03:49:19;;;;;;;5.57;4.95;;;23.50;64.30;;;;;;10321138;28;20101;-60
2023/06/25 03:54:19;;;;;;;5.80;5.00;;;23.50;64.30;;;;;;10326168;28;20389;-61
2023/06/25 03:59:20;;;;;;;6.30;5.00;;;23.50;64.30;;;;;;10323384;28;20101;-60
2023/06/25 04:04:21;;;;;;;5.40;4.75;;;23.50;64.30;;;;;;10311482;28;20030;-60
2023/06/25 04:09:21;;;;;;;5.68;4.80;;;23.50;64.30;;;;;;10308269;28;20053;-61
2023/06/25 04:14:22;;;;;;;5.65;4.85;;;23.50;64.30;;;;;;10325641;28;20014;-60
2023/06/25 04:19:23;;;;;;;5.05;4.45;;;23.50;64.30;;;;;;10325278;28;20025;-60
2023/06/25 04:24:23;;;;;;;5.45;4.18;;;23.50;64.30;;;;;;10323199;28;20109;-61
2023/06/25 04:29:24;;;;;;;5.25;4.47;;;23.50;64.30;;;;;;10323629;28;20397;-61
2023/06/25 04:34:25;;;;;;;5.30;4.80;;;23.50;64.40;;;;;;10323585;28;20069;-60
2023/06/25 04:39:25;;;;;;;5.82;4.75;;;23.50;64.40;;;;;;10322521;28;20130;-61
2023/06/25 04:44:26;;;;;;;5.35;4.38;;;23.50;64.30;;;;;;10322570;28;20580;-60
2023/06/25 04:49:27;;;;;;;5.68;4.85;;;23.50;64.30;;;;;;10306693;28;20337;-60
2023/06/25 04:54:27;;;;;;;5.93;4.72;;;23.50;64.30;;;;;;10322546;28;20521;-61
2023/06/25 04:59:28;;;;;;;4.63;4.05;;;23.50;64.30;;;;;;10322368;28;20113;-60
2023/06/25 05:04:29;;;;;;;6.60;4.68;;;23.50;64.30;;;;;;10323155;28;20113;-61
2023/06/25 05:09:29;;;;;;;5.10;4.60;;;23.50;64.30;;;;;;10322140;28;20053;-61
2023/06/25 05:14:30;;;;;;;5.00;4.30;;;23.50;64.30;;;;;;10321705;28;20157;-61
2023/06/25 05:19:31;;;;;;;5.70;4.90;;;23.50;64.40;;;;;;10321401;28;20029;-61
2023/06/25 05:24:32;;;;;;;5.53;4.97;;;23.50;64.30;;;;;;10322347;28;20172;-61
2023/06/25 05:29:33;;;;;;;5.70;4.75;;;23.50;64.30;;;;;;10321172;28;20018;-61
2023/06/25 05:34:34;;;;;;;5.97;5.35;;;23.50;64.40;;;;;;10322728;28;20101;-60
2023/06/25 05:39:34;;;;;;;4.90;4.40;;;23.50;64.40;;;;;;10320658;28;20471;-61
2023/06/25 05:44:35;;;;;;;5.35;4.35;;;23.50;64.40;;;;;;10321792;28;20058;-60
2023/06/25 05:49:36;;;;;;;6.25;5.25;;;23.50;64.50;;;;;;10321050;28;20361;-60
2023/06/25 05:54:36;;;;;;;5.80;4.85;;;23.50;64.50;;;;;;10322259;28;20065;-60
2023/06/25 05:59:37;;;;;;;6.22;4.32;;;23.50;64.40;;;;;;10319712;28;20073;-62
2023/06/25 06:04:38;;;;;;;5.72;5.22;;;23.50;64.50;;;;;;10321689;28;20030;-60
2023/06/25 06:09:38;;;;;;;5.22;4.55;;;23.50;64.40;;;;;;10321480;28;20109;-61
2023/06/25 06:14:40;;;;;;;5.38;4.75;;;23.50;64.40;;;;;;10320695;28;20125;-60
2023/06/25 06:19:40;;;;;;;6.82;4.47;;;23.50;64.40;;;;;;10320326;28;20014;-61
2023/06/25 06:24:41;;;;;;;4.78;4.25;;;23.50;64.30;;;;;;10320075;28;20026;-61
2023/06/25 06:29:42;;;;;;;5.40;4.85;;;23.50;64.30;;;;;;10315046;28;20077;-61
2023/06/25 06:34:43;;;;;;;5.65;4.80;;;23.50;64.20;;;;;;10303599;28;20906;-60
2023/06/25 06:39:43;;;;;;;5.53;4.90;;;23.50;64.20;;;;;;10303795;28;20192;-60
2023/06/25 06:44:44;;;;;;;5.68;5.13;;;23.50;64.20;;;;;;10318132;28;20113;-61
2023/06/25 06:49:46;;;;;;;6.10;5.30;;;23.50;64.00;;;;;;10320756;28;20609;-60
2023/06/25 06:54:46;;;;;;;4.95;4.28;;;23.60;63.70;;;;;;10319582;28;20316;-61
2023/06/25 06:59:47;;;;;;;5.53;4.93;;;23.60;63.80;;;;;;10303358;28;20450;-61
2023/06/25 07:04:48;;;;;;;5.63;4.95;;;23.60;63.80;;;;;;10319093;28;20790;-60
2023/06/25 07:09:51;;;;;;;5.90;4.90;;;23.70;63.80;;;;;;10324025;28;20026;-61
2023/06/25 07:14:51;;;;;;;6.75;5.28;;;23.70;63.70;;;;;;10326457;28;20022;-61
2023/06/25 07:19:52;;;;;;;6.97;4.97;;;23.70;63.60;;;;;;10327368;28;20105;-60
2023/06/25 07:24:53;;;;;;;5.03;4.53;;;23.70;63.50;;;;;;10327044;28;20037;-60
2023/06/25 07:29:53;;;;;;;7.03;5.30;;;23.80;63.50;;;;;;10320922;28;20026;-61
2023/06/25 07:34:54;;;;;;;6.07;5.13;;;23.80;63.40;;;;;;10326866;28;20158;-61
2023/06/25 07:39:54;;;;;;;7.10;5.07;;;23.80;63.40;;;;;;10326432;28;20070;-60
2023/06/25 07:44:55;;;;;;;5.95;4.85;;;23.90;63.50;;;;;;10325278;28;20129;-60
2023/06/25 07:49:56;;;;;;;5.03;4.53;;;23.90;63.50;;;;;;10297176;28;20444;-59
2023/06/25 07:54:56;;;;;;;5.72;5.10;;;23.90;63.40;;;;;;10326128;28;20100;-61
2023/06/25 07:59:57;;;;;;;5.93;5.20;;;23.90;63.50;;;;;;10314971;28;20073;-61
2023/06/25 08:04:58;;;;;;;5.75;4.60;;;23.90;63.40;;;;;;10299590;28;20044;-60
2023/06/25 08:09:58;;;;;;;5.97;5.03;;;23.90;63.50;;;;;;10316337;28;20034;-60
2023/06/25 08:14:59;;;;;;;6.22;5.03;;;23.90;63.50;;;;;;10317982;28;20110;-61
2023/06/25 08:20:00;;;;;;;5.68;4.90;;;23.90;63.40;;;;;;10323902;28;20452;-61
2023/06/25 08:25:10;;;;;;;4.97;4.30;;;24.00;63.40;;;;;;10319416;28;20092;-60
2023/06/25 08:30:11;;;;;;;4.68;3.95;;;24.00;63.40;;;;;;10320911;28;20015;-61
2023/06/25 08:35:12;;;;;;;5.75;4.57;;;24.00;63.40;;;;;;10322272;28;20557;-59
2023/06/25 08:40:13;;;;;;;6.28;4.82;;;24.00;63.40;;;;;;10324456;28;20106;-60
2023/06/25 08:45:13;;;;;;;6.30;4.72;;;24.00;63.30;;;;;;10322717;28;20061;-60
2023/06/25 08:50:14;;;;;;;4.88;4.38;;;24.00;63.30;;;;;;10322727;28;20022;-61
2023/06/25 08:55:16;;;;;;;5.07;4.18;;;24.10;63.30;;;;;;10322416;28;20070;-60
2023/06/25 09:00:17;;;;;;;5.53;4.40;;;24.00;63.10;;;;;;10322149;28;20022;-60
2023/06/25 09:05:25;;;;;;;5.55;4.40;;;24.10;63.20;;;;;;10322924;28;20043;-60
2023/06/25 09:10:30;;;;;;;5.05;4.43;;;24.10;63.20;;;;;;10321903;28;20029;-60
2023/06/25 09:15:31;;;;;;;4.78;3.80;;;24.10;63.00;;;;;;10322583;28;20425;-62
2023/06/25 09:20:31;;;;;;;5.28;4.68;;;24.10;63.00;;;;;;10321599;28;20022;-61
2023/06/25 09:25:33;;;;;;;4.88;3.90;;;24.10;63.00;;;;;;10322743;28;20145;-60
2023/06/25 09:30:35;;;;;;;4.95;4.30;;;24.10;63.00;;;;;;10321863;28;20385;-60
2023/06/25 09:35:36;;;;;;;5.45;3.85;;;24.20;63.00;;;;;;10320668;28;20129;-61
2023/06/25 09:40:36;;;;;;;5.88;4.35;;;24.20;63.00;;;;;;10303534;28;20026;-60
2023/06/25 09:45:37;;;;;;;5.30;4.32;;;24.20;63.00;;;;;;10320451;28;20038;-60
2023/06/25 09:50:41;;;;;;;5.57;4.35;;;24.20;63.00;;;;;;10320431;28;20477;-61
2023/06/25 09:55:42;;;;;;;4.70;4.03;;;24.20;63.00;;;;;;10299665;28;20113;-61
2023/06/25 10:00:43;;;;;;;5.00;4.22;;;24.20;63.00;;;;;;10322041;28;20270;-60
2023/06/25 10:05:44;;;;;;;4.65;4.15;;;24.20;63.00;;;;;;10318408;28;20045;-60
2023/06/25 10:10:59;;;;;;;5.55;4.38;;;24.30;63.00;;;;;;10319949;28;20034;-61
2023/06/25 10:16:03;;;;;;;5.18;4.50;;;24.20;62.90;;;;;;10320327;28;20373;-60
2023/06/25 10:21:03;;;;;;;6.07;4.50;;;24.30;62.90;;;;;;10320289;28;20563;-60
2023/06/25 10:26:04;;;;;;;4.55;3.75;;;24.30;62.60;;;;;;10311563;28;20096;-59
2023/06/25 10:31:14;;;;;;;4.88;4.38;;;24.30;62.50;;;;;;10312674;28;20022;-59
2023/06/25 10:36:15;;;;;;;4.93;4.15;;;24.30;62.50;;;;;;10321017;28;20047;-60
2023/06/25 10:41:24;;;;;;;4.88;4.15;;;24.30;62.50;;;;;;10316265;28;20121;-60
2023/06/25 10:46:32;;;;;;;4.63;4.20;;;24.30;62.60;;;;;;10326819;28;20036;-60
2023/06/25 10:51:33;;;;;;;4.93;4.17;;;24.30;62.50;;;;;;10328884;28;20062;-60
2023/06/25 10:56:33;;;;;;;5.10;4.60;;;24.30;62.50;;;;;;10316195;28;20588;-60
2023/06/25 11:01:35;;;;;;;7.90;5.18;;;24.40;62.60;;;;;;10317187;28;20080;-59
2023/06/25 11:06:38;;;;;;;5.75;5.15;;;24.30;62.60;;;;;;10317173;28;20034;-61
2023/06/25 11:11:39;;;;;;;4.72;3.80;;;24.40;62.50;;;;;;10326839;28;20049;-61
2023/06/25 11:16:46;;;;;;;5.20;3.88;;;24.40;62.40;;;;;;10327386;28;20029;-60
2023/06/25 11:21:50;;;;;;;4.75;3.65;;;24.40;62.50;;;;;;10321402;28;20030;-60
2023/06/25 11:26:57;;;;;;;6.50;4.10;;;24.40;62.60;;;;;;10309498;28;20030;-61
2023/06/25 11:31:58;;;;;;;5.28;3.92;;;24.40;62.60;;;;;;10326373;28;20098;-61
2023/06/25 11:37:09;;;;;;;5.40;4.90;;;24.40;62.70;;;;;;10326699;28;20502;-59
2023/06/25 11:42:17;;;;;;;5.05;4.40;;;24.40;62.70;;;;;;10316170;28;20037;-60
2023/06/25 11:47:18;;;;;;;4.47;4.07;;;24.40;62.60;;;;;;10325015;28;20026;-61
2023/06/25 11:52:19;;;;;;;5.32;4.18;;;24.50;62.60;;;;;;10324975;28;20466;-60
2023/06/25 11:57:20;;;;;;;5.07;4.00;;;24.50;62.60;;;;;;10308166;28;20137;-60
2023/06/25 12:02:20;;;;;;;4.95;4.13;;;24.50;62.60;;;;;;10322102;28;20025;-61
2023/06/25 12:07:21;;;;;;;6.25;4.60;;;24.50;62.60;;;;;;10322694;28;20109;-61
2023/06/25 12:12:21;;;;;;;4.60;4.13;;;24.50;62.60;;;;;;10324014;28;20106;-61
2023/06/25 12:17:22;;;;;;;4.40;3.85;;;24.50;62.60;;;;;;10325414;28;20101;-61
2023/06/25 12:22:23;;;;;;;4.85;3.92;;;24.50;62.50;;;;;;10324898;28;20106;-59
2023/06/25 12:27:23;;;;;;;4.78;4.28;;;24.50;62.60;;;;;;10323947;28;20621;-61
2023/06/25 12:32:24;;;;;;;5.35;4.47;;;24.50;62.50;;;;;;10323158;28;20129;-60
2023/06/25 12:37:25;;;;;;;4.53;3.95;;;24.50;62.50;;;;;;10324168;28;20096;-59
2023/06/25 12:42:25;;;;;;;4.35;3.70;;;24.50;62.50;;;;;;10322945;28;20706;-60
2023/06/25 12:47:26;;;;;;;5.45;4.10;;;24.50;62.40;;;;;;10323599;28;20038;-60
2023/06/25 12:52:27;;;;;;;4.28;3.85;;;24.50;62.30;;;;;;10322546;28;20022;-60
2023/06/25 12:57:28;;;;;;;4.45;4.05;;;24.50;62.30;;;;;;10323594;28;20068;-58
2023/06/25 13:02:28;;;;;;;4.93;3.97;;;24.60;62.40;;;;;;10323464;28;20505;-59
2023/06/25 13:07:29;;;;;;;4.80;4.10;;;24.60;62.20;;;;;;10322660;28;20045;-58
2023/06/25 13:12:30;;;;;;;5.53;4.18;;;24.60;62.10;;;;;;10323544;28;20369;-59
2023/06/25 13:17:30;;;;;;;5.18;4.03;;;24.60;62.00;;;;;;10309467;28;20062;-61
2023/06/25 13:22:31;;;;;;;4.32;3.92;;;24.60;62.00;;;;;;10323034;28;20101;-60
2023/06/25 13:27:32;;;;;;;4.00;3.38;;;24.60;62.00;;;;;;10294226;28;20397;-60
2023/06/25 13:32:32;;;;;;;5.50;4.28;;;24.60;62.00;;;;;;10311532;28;20125;-59
2023/06/25 13:37:33;;;;;;;5.70;4.70;;;24.60;61.90;;;;;;10320833;28;20137;-57
2023/06/25 13:42:34;;;;;;;4.35;3.92;;;24.60;61.90;;;;;;10314899;28;20057;-59
2023/06/25 13:47:35;;;;;;;5.07;4.35;;;24.60;61.80;;;;;;10322369;28;20027;-61
2023/06/25 13:52:36;;;;;;;5.32;4.40;;;24.60;61.70;;;;;;10320969;28;20015;-60
2023/06/25 13:57:37;;;;;;;4.63;4.13;;;24.60;61.70;;;;;;10320834;28;20050;-59
2023/06/25 14:02:37;;;;;;;4.85;3.83;;;24.60;61.70;;;;;;10320446;28;20018;-60
2023/06/25 14:07:38;;;;;;;4.75;4.22;;;24.60;61.70;;;;;;10304067;28;20030;-59
2023/06/25 14:12:39;;;;;;;4.75;3.75;;;24.60;61.60;;;;;;10321839;28;20015;-60
2023/06/25 14:17:40;;;;;;;4.80;4.30;;;24.60;61.70;;;;;;10311068;28;20062;-58
2023/06/25 14:22:40;;;;;;;5.00;4.32;;;24.60;61.70;;;;;;10329498;28;20018;-61
2023/06/25 14:27:41;;;;;;;5.82;4.10;;;24.60;61.60;;;;;;10329371;28;20166;-61
2023/06/25 14:32:42;;;;;;;5.13;4.63;;;24.60;61.60;;;;;;10304266;28;20054;-60
2023/06/25 14:37:43;;;;;;;4.80;4.25;;;24.60;61.50;;;;;;10322201;28;20514;-59
2023/06/25 14:42:43;;;;;;;5.13;4.63;;;24.60;61.50;;;;;;10306599;28;20018;-59
2023/06/25 14:47:44;;;;;;;6.88;5.45;;;24.60;61.40;;;;;;10327368;28;20117;-61
2023/06/25 14:52:45;;;;;;;6.47;4.70;;;24.60;61.40;;;;;;10328508;28;20393;-60
2023/06/25 14:57:45;;;;;;;4.95;4.20;;;24.60;61.10;;;;;;10325492;28;20026;-60
2023/06/25 15:02:46;;;;;;;4.70;4.00;;;24.60;60.80;;;;;;10326134;28;20050;-60
2023/06/25 15:07:47;;;;;;;5.85;4.55;;;24.60;60.90;;;;;;10314027;28;20037;-61
2023/06/25 15:12:47;;;;;;;5.00;4.28;;;24.70;60.80;;;;;;10326549;28;20109;-60
2023/06/25 15:17:48;;;;;;;6.40;4.93;;;24.60;60.80;;;;;;10309772;28;20323;-58
2023/06/25 15:22:49;;;;;;;5.50;5.00;;;24.60;60.60;;;;;;10310119;28;20018;-60
2023/06/25 15:27:49;;;;;;;5.78;4.97;;;24.60;60.80;;;;;;10317226;28;20122;-60
2023/06/25 15:32:50;;;;;;;5.32;4.43;;;24.60;60.90;;;;;;10317500;28;20557;-60
2023/06/25 15:37:51;;;;;;;5.93;4.95;;;24.70;60.70;;;;;;10325644;28;20165;-60
2023/06/25 15:42:51;;;;;;;5.90;4.93;;;24.70;60.60;;;;;;10321811;28;20109;-60
2023/06/25 15:47:52;;;;;;;5.55;4.63;;;24.70;60.70;;;;;;10326424;28;20069;-60
2023/06/25 15:52:53;;;;;;;5.78;5.18;;;24.70;60.60;;;;;;10323944;28;20497;-61
2023/06/25 15:57:54;;;;;;;6.03;5.10;;;24.70;60.80;;;;;;10326499;28;20057;-60
2023/06/25 16:02:55;;;;;;;5.65;5.15;;;24.70;60.40;;;;;;10325949;28;20018;-61
2023/06/25 16:07:56;;;;;;;5.40;4.68;;;24.70;60.40;;;;;;10324982;28;20040;-60
2023/06/25 16:12:57;;;;;;;5.32;4.28;;;24.70;60.40;;;;;;10325489;28;20029;-61
2023/06/25 16:17:57;;;;;;;5.45;4.95;;;24.80;60.50;;;;;;10323904;28;20290;-59
2023/06/25 16:22:58;;;;;;;5.05;4.55;;;24.70;60.60;;;;;;10324828;28;20113;-61
2023/06/25 16:27:59;;;;;;;7.80;5.68;;;24.70;60.50;;;;;;10323941;28;20041;-60
2023/06/25 16:33:00;;;;;;;5.32;4.82;;;24.80;60.20;;;;;;10322988;28;20270;-61
2023/06/25 16:38:01;;;;;;;5.57;5.03;;;24.80;60.00;;;;;;10324147;28;20050;-59
2023/06/25 16:43:02;;;;;;;5.55;4.93;;;24.80;60.00;;;;;;10322772;28;20056;-60
2023/06/25 16:48:03;;;;;;;5.45;4.72;;;24.80;59.70;;;;;;10322287;28;20033;-61
2023/06/25 16:53:03;;;;;;;6.35;5.72;;;24.80;59.90;;;;;;10309357;28;20027;-60
2023/06/25 16:58:04;;;;;;;5.75;5.20;;;24.80;59.60;;;;;;10322377;28;20433;-60
2023/06/25 17:03:06;;;;;;;5.70;5.20;;;24.80;59.70;;;;;;10311465;28;20057;-59
2023/06/25 17:08:07;;;;;;;5.53;4.97;;;24.80;59.70;;;;;;10323374;28;20537;-59
2023/06/25 17:13:07;;;;;;;6.35;5.47;;;24.80;59.90;;;;;;10323147;28;20103;-59
2023/06/25 17:18:10;;;;;;;5.32;4.82;;;24.90;59.80;;;;;;10321982;28;20022;-61
2023/06/25 17:23:12;;;;;;;6.43;5.35;;;24.80;60.00;;;;;;10321797;28;20022;-60
2023/06/25 17:28:13;;;;;;;5.80;5.00;;;24.80;60.70;;;;;;10321217;28;20054;-61
2023/06/25 17:33:13;;;;;;;6.10;5.50;;;24.90;59.80;;;;;;10322532;28;20105;-60
2023/06/25 17:38:14;;;;;;;5.68;5.07;;;24.90;59.90;;;;;;10321567;28;20137;-61
2023/06/25 17:43:15;;;;;;;6.25;5.65;;;24.90;60.00;;;;;;10322721;28;20137;-60
2023/06/25 17:48:15;;;;;;;6.80;6.10;;;24.90;60.00;;;;;;10322341;28;20117;-60
2023/06/25 17:53:16;;;;;;;6.82;6.00;;;24.80;60.00;;;;;;10308491;28;20634;-60
2023/06/25 17:58:16;;;;;;;6.05;5.43;;;24.80;60.10;;;;;;10310160;28;20088;-60
2023/06/25 18:03:19;;;;;;;5.97;5.38;;;24.90;60.30;;;;;;10320721;28;20110;-59
2023/06/25 18:08:19;;;;;;;5.65;4.82;;;24.90;60.30;;;;;;10321355;28;20023;-61
2023/06/25 18:13:21;;;;;;;5.85;5.25;;;24.80;60.40;;;;;;10320069;28;20014;-60
2023/06/25 18:18:22;;;;;;;5.63;5.00;;;24.80;60.30;;;;;;10320182;28;20077;-60
2023/06/25 18:23:24;;;;;;;4.88;4.38;;;24.80;60.40;;;;;;10304231;28;20019;-61
2023/06/25 18:28:24;;;;;;;6.10;5.43;;;24.80;60.50;;;;;;10321428;28;20057;-61
2023/06/25 18:33:25;;;;;;;5.88;5.28;;;24.80;61.10;;;;;;10320156;28;20105;-60
2023/06/25 18:38:27;;;;;;;6.55;5.72;;;24.90;60.50;;;;;;10319933;28;20042;-60
2023/06/25 18:43:28;;;;;;;5.80;5.22;;;24.80;60.60;;;;;;10319937;28;20518;-59
2023/06/25 18:48:28;;;;;;;5.45;4.95;;;24.80;60.80;;;;;;10321187;28;20148;-60
2023/06/25 18:53:29;;;;;;;6.55;5.18;;;24.80;60.80;;;;;;10319698;28;20023;-60
2023/06/25 18:58:29;;;;;;;5.93;5.03;;;24.70;60.80;;;;;;10319825;28;20458;-61
2023/06/25 19:03:30;;;;;;;5.55;4.78;;;24.70;60.90;;;;;;10321017;28;20046;-60
2023/06/25 19:08:31;;;;;;;6.60;5.72;;;24.70;60.90;;;;;;10327073;28;20015;-60
2023/06/25 19:13:32;;;;;;;6.20;5.60;;;24.70;60.90;;;;;;10327961;28;20351;-60
2023/06/25 19:18:33;;;;;;;5.30;4.80;;;24.70;60.90;;;;;;10326361;28;20006;-62
2023/06/25 19:23:33;;;;;;;5.75;5.15;;;24.80;61.00;;;;;;10326301;28;20437;-60
2023/06/25 19:28:34;;;;;;;5.78;5.18;;;24.70;61.00;;;;;;10326652;28;20038;-59
2023/06/25 19:33:35;;;;;;;5.45;4.88;;;24.70;61.00;;;;;;10326121;28;20021;-60
2023/06/25 19:38:35;;;;;;;5.72;4.95;;;24.70;61.20;;;;;;10326689;28;20052;-60
2023/06/25 19:43:36;;;;;;;4.57;4.10;;;24.70;61.20;;;;;;10314324;28;20366;-61
2023/06/25 19:48:37;;;;;;;6.30;5.03;;;24.70;61.20;;;;;;10325538;28;20007;-61
2023/06/25 19:53:37;;;;;;;5.25;4.72;;;24.70;61.30;;;;;;10326532;28;20042;-60
2023/06/25 19:58:39;;;;;;;5.80;5.20;;;24.70;61.30;;;;;;10308721;28;20040;-60
2023/06/25 20:03:40;;;;;;;5.68;5.18;;;24.70;61.40;;;;;;10324683;28;20022;-60
2023/06/25 20:08:41;;;;;;;5.70;5.20;;;24.70;61.50;;;;;;10324766;28;20019;-60
2023/06/25 20:13:41;;;;;;;5.43;4.93;;;24.70;61.50;;;;;;10323908;28;20472;-60
2023/06/25 20:18:42;;;;;;;5.38;4.88;;;24.70;61.60;;;;;;10325017;28;20065;-60
2023/06/25 20:23:43;;;;;;;5.90;4.93;;;24.70;61.60;;;;;;10323971;28;20022;-61
2023/06/25 20:28:43;;;;;;;5.75;5.15;;;24.60;61.70;;;;;;10323502;28;20122;-60
2023/06/25 20:33:44;;;;;;;5.55;5.05;;;24.70;61.80;;;;;;10323939;28;20109;-60
2023/06/25 20:38:45;;;;;;;6.00;5.40;;;24.60;61.80;;;;;;10322852;28;20050;-60
2023/06/25 20:43:45;;;;;;;5.65;5.15;;;24.60;61.90;;;;;;10313348;28;20030;-60
2023/06/25 20:48:48;;;;;;;5.75;5.13;;;24.70;62.00;;;;;;10304337;28;20131;-58
2023/06/25 20:53:49;;;;;;;6.05;5.45;;;24.60;62.10;;;;;;10320936;28;20143;-60
2023/06/25 20:58:50;;;;;;;5.30;4.80;;;24.60;62.20;;;;;;10303825;28;20569;-60
2023/06/25 21:03:50;;;;;;;5.22;4.72;;;24.60;62.20;;;;;;10320766;28;20034;-60
2023/06/25 21:08:51;;;;;;;5.93;5.43;;;24.60;62.30;;;;;;10320826;28;20109;-61
2023/06/25 21:13:52;;;;;;;6.15;5.65;;;24.60;62.30;;;;;;10320573;28;20146;-61
2023/06/25 21:18:52;;;;;;;6.72;6.03;;;24.60;62.40;;;;;;10304108;28;20054;-60
2023/06/25 21:23:53;;;;;;;5.93;5.32;;;24.60;62.60;;;;;;10321387;28;20026;-60
2023/06/25 21:28:55;;;;;;;5.70;5.10;;;24.60;62.70;;;;;;10319106;28;20105;-59
2023/06/25 21:33:56;;;;;;;5.88;4.75;;;24.60;63.40;;;;;;10293648;28;20042;-61
2023/06/25 21:38:57;;;;;;;5.82;5.22;;;24.60;62.70;;;;;;10319682;28;20145;-59
2023/06/25 21:43:57;;;;;;;6.28;5.68;;;24.60;62.90;;;;;;10311364;28;20517;-60
2023/06/25 21:48:58;;;;;;;6.15;5.55;;;24.60;63.20;;;;;;10319888;28;20054;-61
2023/06/25 21:53:59;;;;;;;6.80;6.10;;;24.60;63.10;;;;;;10303247;28;20029;-60
2023/06/25 21:59:00;;;;;;;5.78;5.20;;;24.60;63.10;;;;;;10320620;28;20037;-60
2023/06/25 22:04:00;;;;;;;5.28;4.78;;;24.60;62.90;;;;;;10319269;28;20066;-59
2023/06/25 22:09:01;;;;;;;5.70;5.10;;;24.60;62.90;;;;;;10320117;28;20134;-60
2023/06/25 22:14:02;;;;;;;6.47;5.88;;;24.60;63.20;;;;;;10319201;28;20018;-60
2023/06/25 22:19:03;;;;;;;6.53;5.80;;;24.60;63.20;;;;;;10302490;28;20479;-58
2023/06/25 22:24:04;;;;;;;5.63;5.07;;;24.60;63.20;;;;;;10318507;28;20034;-60
2023/06/25 22:29:05;;;;;;;6.75;6.03;;;24.60;63.10;;;;;;10318684;28;20377;-61
2023/06/25 22:34:05;;;;;;;7.15;6.45;;;24.60;63.20;;;;;;10318686;28;20073;-61
2023/06/25 22:39:06;;;;;;;6.20;5.63;;;24.60;63.30;;;;;;10320660;28;20060;-60
2023/06/25 22:44:07;;;;;;;7.65;6.95;;;24.60;63.30;;;;;;10326018;28;20035;-61
2023/06/25 22:49:08;;;;;;;6.78;5.47;;;24.60;63.30;;;;;;10309806;28;20493;-60
2023/06/25 22:54:08;;;;;;;5.57;5.07;;;24.60;63.30;;;;;;10326128;28;20019;-60
2023/06/25 22:59:10;;;;;;;6.53;5.68;;;24.60;63.40;;;;;;10327115;28;20097;-60
2023/06/25 23:04:10;;;;;;;5.85;5.35;;;24.60;63.30;;;;;;10327547;28;20092;-58
2023/06/25 23:09:14;;;;;;;6.10;5.50;;;24.60;63.30;;;;;;10325096;28;20522;-60
2023/06/25 23:14:15;;;;;;;6.25;5.65;;;24.60;63.20;;;;;;10325718;28;20101;-60
2023/06/25 23:19:16;;;;;;;6.57;5.25;;;24.50;63.20;;;;;;10325230;28;20489;-60
2023/06/25 23:24:17;;;;;;;5.85;5.25;;;24.60;63.20;;;;;;10326337;28;20081;-61
2023/06/25 23:29:18;;;;;;;5.95;5.35;;;24.50;63.20;;;;;;10308236;28;20026;-60
2023/06/25 23:34:19;;;;;;;6.38;5.78;;;24.60;63.30;;;;;;10325848;28;20109;-60
2023/06/25 23:39:19;;;;;;;6.05;5.45;;;24.50;63.20;;;;;;10323987;28;20196;-61
2023/06/25 23:44:20;;;;;;;5.88;5.38;;;24.50;63.20;;;;;;10325140;28;20541;-59
2023/06/25 23:49:21;;;;;;;6.43;5.72;;;24.50;63.30;;;;;;10323382;28;20350;-59
2023/06/25 23:54:21;;;;;;;7.40;6.10;;;24.50;63.30;;;;;;10323516;28;20027;-60
2023/06/25 23:59:22;;;;;;;6.63;5.90;;;24.50;63.30;;;;;;10323182;28;20118;-60
